createdAt,value
2019-02-09T00:00:01.066Z,92.90
2019-02-09T00:01:00.980Z,92.80
2019-02-09T00:02:00.900Z,92.90
2019-02-09T00:03:00.819Z,92.90
2019-02-09T00:04:00.727Z,92.52
2019-02-09T00:05:00.648Z,92.24
2019-02-09T00:06:00.568Z,91.86
2019-02-09T00:07:00.484Z,92.24
2019-02-09T00:08:00.402Z,92.14
2019-02-09T00:09:00.323Z,92.05
2019-02-09T00:10:00.240Z,92.52
2019-02-09T00:11:00.153Z,92.52
2019-02-09T00:12:00.069Z,93.46
2019-02-09T00:12:59.984Z,92.80
2019-02-09T00:13:59.902Z,93.08
2019-02-09T00:14:59.817Z,93.08
2019-02-09T00:15:59.735Z,93.46
2019-02-09T00:16:59.658Z,93.84
2019-02-09T00:17:59.568Z,94.13
2019-02-09T00:18:59.487Z,94.42
2019-02-09T00:19:59.405Z,94.60
2019-02-09T00:20:59.314Z,94.42
2019-02-09T00:21:59.243Z,94.42
2019-02-09T00:22:59.153Z,94.13
2019-02-09T00:23:59.078Z,94.93
2019-02-09T00:24:58.983Z,94.98
2019-02-09T00:25:58.905Z,95.45
2019-02-09T00:26:58.825Z,95.12
2019-02-09T00:27:58.739Z,94.89
2019-02-09T00:28:58.656Z,94.60
2019-02-09T00:29:58.568Z,94.42
2019-02-09T00:30:58.481Z,93.18
2019-02-09T00:31:58.406Z,93.18
2019-02-09T00:32:58.326Z,93.56
2019-02-09T00:33:58.237Z,93.27
2019-02-09T00:34:58.156Z,93.27
2019-02-09T00:35:58.072Z,93.37
2019-02-09T00:36:57.982Z,92.99
2019-02-09T00:37:57.905Z,93.46
2019-02-09T00:38:57.823Z,93.46
2019-02-09T00:39:57.739Z,92.99
2019-02-09T00:40:57.670Z,93.08
2019-02-09T00:41:57.572Z,93.56
2019-02-09T00:42:57.496Z,93.65
2019-02-09T00:43:57.406Z,94.42
2019-02-09T00:44:57.441Z,94.32
2019-02-09T00:45:57.239Z,94.79
2019-02-09T00:46:57.156Z,94.74
2019-02-09T00:47:57.071Z,95.40
2019-02-09T00:48:56.989Z,95.50
2019-02-09T00:49:56.903Z,95.69
2019-02-09T00:50:56.822Z,95.69
2019-02-09T00:51:56.741Z,95.97
2019-02-09T00:52:56.657Z,95.78
2019-02-09T00:53:56.575Z,95.59
2019-02-09T00:54:56.497Z,95.40
2019-02-09T00:55:56.408Z,95.07
2019-02-09T00:56:56.317Z,94.84
2019-02-09T00:57:56.239Z,94.42
2019-02-09T00:58:56.156Z,94.37
2019-02-09T00:59:56.081Z,94.51
2019-02-09T01:00:55.988Z,94.93
2019-02-09T01:01:55.899Z,94.65
2019-02-09T01:02:55.823Z,95.31
2019-02-09T01:03:55.744Z,94.65
2019-02-09T01:04:55.664Z,94.65
2019-02-09T01:05:55.574Z,94.93
2019-02-09T01:06:55.490Z,95.03
2019-02-09T01:07:55.408Z,94.93
2019-02-09T01:08:55.326Z,95.03
2019-02-09T01:09:55.235Z,94.84
2019-02-09T01:10:55.159Z,95.03
2019-02-09T01:11:55.077Z,95.69
2019-02-09T01:12:54.999Z,95.40
2019-02-09T01:13:54.907Z,95.50
2019-02-09T01:14:54.820Z,95.12
2019-02-09T01:15:54.742Z,95.88
2019-02-09T01:16:54.654Z,95.88
2019-02-09T01:17:54.577Z,95.59
2019-02-09T01:18:54.491Z,95.59
2019-02-09T01:19:54.412Z,94.65
2019-02-09T01:20:54.323Z,94.65
2019-02-09T01:21:54.247Z,94.84
2019-02-09T01:22:54.158Z,94.65
2019-02-09T01:23:54.075Z,94.37
2019-02-09T01:24:53.990Z,93.99
2019-02-09T01:25:53.908Z,93.99
2019-02-09T01:26:53.826Z,94.18
2019-02-09T01:27:53.752Z,94.37
2019-02-09T01:28:53.655Z,94.18
2019-02-09T01:29:53.576Z,93.80
2019-02-09T01:30:53.491Z,93.51
2019-02-09T01:31:53.406Z,93.61
2019-02-09T01:32:53.331Z,93.51
2019-02-09T01:33:53.243Z,93.42
2019-02-09T01:34:53.157Z,93.32
2019-02-09T01:35:53.129Z,93.51
2019-02-09T01:36:52.990Z,93.32
2019-02-09T01:37:52.908Z,92.99
2019-02-09T01:38:52.824Z,92.76
2019-02-09T01:39:52.739Z,92.94
2019-02-09T01:40:52.657Z,92.85
2019-02-09T01:41:52.574Z,93.04
2019-02-09T01:42:52.495Z,93.04
2019-02-09T01:43:52.410Z,93.04
2019-02-09T01:44:52.322Z,92.85
2019-02-09T01:45:52.240Z,92.94
2019-02-09T01:46:52.159Z,93.04
2019-02-09T01:47:52.074Z,92.85
2019-02-09T01:48:52.009Z,93.13
2019-02-09T01:49:51.911Z,92.85
2019-02-09T01:50:51.823Z,93.32
2019-02-09T01:51:51.745Z,94.18
2019-02-09T01:52:51.659Z,94.37
2019-02-09T01:53:51.575Z,95.50
2019-02-09T01:54:51.491Z,96.07
2019-02-09T01:55:51.407Z,96.64
2019-02-09T01:56:51.324Z,97.20
2019-02-09T01:57:51.243Z,97.30
2019-02-09T01:58:51.159Z,98.15
2019-02-09T01:59:51.077Z,98.25
2019-02-09T02:00:50.994Z,98.53
2019-02-09T02:01:50.910Z,99.15
2019-02-09T02:02:50.827Z,98.96
2019-02-09T02:03:50.752Z,99.15
2019-02-09T02:04:50.659Z,99.24
2019-02-09T02:05:50.576Z,99.62
2019-02-09T02:06:50.491Z,99.99
2019-02-09T02:07:50.411Z,99.99
2019-02-09T02:08:50.326Z,99.99
2019-02-09T02:09:50.241Z,99.99
2019-02-09T02:10:50.160Z,99.99
2019-02-09T02:11:50.074Z,99.99
2019-02-09T02:12:49.996Z,99.99
2019-02-09T02:13:49.907Z,99.99
2019-02-09T02:14:49.825Z,99.99
2019-02-09T02:15:49.743Z,99.99
2019-02-09T02:16:49.655Z,99.99
2019-02-09T02:17:49.572Z,99.99
2019-02-09T02:18:49.493Z,99.99
2019-02-09T02:19:49.405Z,99.99
2019-02-09T02:20:49.323Z,99.99
2019-02-09T02:21:49.260Z,99.99
2019-02-09T02:22:49.154Z,99.99
2019-02-09T02:23:49.073Z,99.99
2019-02-09T02:24:48.990Z,99.99
2019-02-09T02:25:48.908Z,99.99
2019-02-09T02:26:48.822Z,99.99
2019-02-09T02:27:48.739Z,99.99
2019-02-09T02:28:48.655Z,99.99
2019-02-09T02:29:48.573Z,99.99
2019-02-09T02:30:48.490Z,99.99
2019-02-09T02:31:48.404Z,99.99
2019-02-09T02:32:48.321Z,99.99
2019-02-09T02:33:48.245Z,99.99
2019-02-09T02:34:48.151Z,99.99
2019-02-09T02:35:48.071Z,99.99
2019-02-09T02:36:47.984Z,99.99
2019-02-09T02:37:47.901Z,99.99
2019-02-09T02:38:47.812Z,99.99
2019-02-09T02:39:47.730Z,99.99
2019-02-09T02:40:47.648Z,99.99
2019-02-09T02:41:47.572Z,99.99
2019-02-09T02:42:47.478Z,99.99
2019-02-09T02:43:47.401Z,99.99
2019-02-09T02:44:47.317Z,99.99
2019-02-09T02:45:47.231Z,99.99
2019-02-09T02:46:47.148Z,99.99
2019-02-09T02:47:47.074Z,99.99
2019-02-09T02:48:46.989Z,99.99
2019-02-09T02:49:46.898Z,99.99
2019-02-09T02:50:46.812Z,99.99
2019-02-09T02:51:46.729Z,99.99
2019-02-09T02:52:46.648Z,99.99
2019-02-09T02:53:46.574Z,99.99
2019-02-09T02:54:46.477Z,99.99
2019-02-09T02:55:46.394Z,99.99
2019-02-09T02:56:46.309Z,99.99
2019-02-09T02:57:46.236Z,99.99
2019-02-09T02:58:46.142Z,99.99
2019-02-09T02:59:46.056Z,99.99
2019-02-09T03:00:45.988Z,99.99
2019-02-09T03:01:45.890Z,99.99
2019-02-09T03:02:45.808Z,99.99
2019-02-09T03:03:45.720Z,99.99
2019-02-09T03:04:45.640Z,99.99
2019-02-09T03:05:45.552Z,99.85
2019-02-09T03:06:45.475Z,99.99
2019-02-09T03:07:45.386Z,99.99
2019-02-09T03:08:45.303Z,99.95
2019-02-09T03:09:45.217Z,99.38
2019-02-09T03:10:45.135Z,99.19
2019-02-09T03:11:45.051Z,97.96
2019-02-09T03:12:44.972Z,98.25
2019-02-09T03:13:44.883Z,98.25
2019-02-09T03:14:44.803Z,97.96
2019-02-09T03:15:44.719Z,97.77
2019-02-09T03:16:44.626Z,97.39
2019-02-09T03:17:44.560Z,96.83
2019-02-09T03:18:44.475Z,97.11
2019-02-09T03:19:44.383Z,97.20
2019-02-09T03:20:44.302Z,97.02
2019-02-09T03:21:44.217Z,96.54
2019-02-09T03:22:44.131Z,96.45
2019-02-09T03:23:44.048Z,95.69
2019-02-09T03:24:43.965Z,96.45
2019-02-09T03:25:43.895Z,95.97
2019-02-09T03:26:43.800Z,95.40
2019-02-09T03:27:43.714Z,95.50
2019-02-09T03:28:43.626Z,95.59
2019-02-09T03:29:43.542Z,95.31
2019-02-09T03:30:47.884Z,94.84
2019-02-09T03:31:43.382Z,94.65
2019-02-09T03:32:43.290Z,95.59
2019-02-09T03:33:43.305Z,95.50
2019-02-09T03:34:43.128Z,95.50
2019-02-09T03:35:43.041Z,94.84
2019-02-09T03:36:42.961Z,94.18
2019-02-09T03:37:42.875Z,94.37
2019-02-09T03:38:42.790Z,93.80
2019-02-09T03:39:42.710Z,94.32
2019-02-09T03:40:42.623Z,93.08
2019-02-09T03:41:42.542Z,92.71
2019-02-09T03:42:42.458Z,93.27
2019-02-09T03:43:42.377Z,92.99
2019-02-09T03:44:42.289Z,92.80
2019-02-09T03:45:42.203Z,92.24
2019-02-09T03:46:42.131Z,92.05
2019-02-09T03:47:42.051Z,92.52
2019-02-09T03:48:41.955Z,93.56
2019-02-09T03:49:41.868Z,93.56
2019-02-09T03:50:41.790Z,92.52
2019-02-09T03:51:41.708Z,92.14
2019-02-09T03:52:41.618Z,92.24
2019-02-09T03:53:41.537Z,92.24
2019-02-09T03:54:41.451Z,91.86
2019-02-09T03:55:41.373Z,91.29
2019-02-09T03:56:41.297Z,91.48
2019-02-09T03:57:41.198Z,91.19
2019-02-09T03:58:41.121Z,91.76
2019-02-09T03:59:41.041Z,91.95
2019-02-09T04:00:40.955Z,92.14
2019-02-09T04:01:40.869Z,92.33
2019-02-09T04:02:40.799Z,92.05
2019-02-09T04:03:40.704Z,92.05
2019-02-09T04:04:40.617Z,91.19
2019-02-09T04:05:40.538Z,91.19
2019-02-09T04:06:40.454Z,91.00
2019-02-09T04:07:40.368Z,90.81
2019-02-09T04:08:40.283Z,90.72
2019-02-09T04:09:40.202Z,91.29
2019-02-09T04:10:40.133Z,91.10
2019-02-09T04:11:40.040Z,91.00
2019-02-09T04:12:39.953Z,91.95
2019-02-09T04:13:39.872Z,91.57
2019-02-09T04:14:39.794Z,91.67
2019-02-09T04:15:39.698Z,92.05
2019-02-09T04:16:39.616Z,92.52
2019-02-09T04:17:39.532Z,92.90
2019-02-09T04:18:39.452Z,92.80
2019-02-09T04:19:39.370Z,93.46
2019-02-09T04:20:39.288Z,93.46
2019-02-09T04:21:39.199Z,94.42
2019-02-09T04:22:39.120Z,95.74
2019-02-09T04:23:39.036Z,95.07
2019-02-09T04:24:38.957Z,94.23
2019-02-09T04:25:38.872Z,94.42
2019-02-09T04:26:38.788Z,94.89
2019-02-09T04:27:38.707Z,94.98
2019-02-09T04:28:38.619Z,94.04
2019-02-09T04:29:38.540Z,93.75
2019-02-09T04:30:38.450Z,93.37
2019-02-09T04:31:38.375Z,93.37
2019-02-09T04:32:38.287Z,93.46
2019-02-09T04:33:38.204Z,93.65
2019-02-09T04:34:38.124Z,94.42
2019-02-09T04:35:38.038Z,94.42
2019-02-09T04:36:37.956Z,94.04
2019-02-09T04:37:37.875Z,93.37
2019-02-09T04:38:37.792Z,93.18
2019-02-09T04:39:37.708Z,93.46
2019-02-09T04:40:37.623Z,92.61
2019-02-09T04:41:37.551Z,91.95
2019-02-09T04:42:37.459Z,91.95
2019-02-09T04:43:37.421Z,90.86
2019-02-09T04:44:37.291Z,91.24
2019-02-09T04:45:37.208Z,90.77
2019-02-09T04:46:37.122Z,90.86
2019-02-09T04:47:37.044Z,90.58
2019-02-09T04:48:36.973Z,90.86
2019-02-09T04:49:36.881Z,90.86
2019-02-09T04:50:36.793Z,90.20
2019-02-09T04:51:36.712Z,90.95
2019-02-09T04:52:36.625Z,90.20
2019-02-09T04:53:36.542Z,89.63
2019-02-09T04:54:36.460Z,89.63
2019-02-09T04:55:36.378Z,89.44
2019-02-09T04:56:36.295Z,89.72
2019-02-09T04:57:36.205Z,90.10
2019-02-09T04:58:36.128Z,89.63
2019-02-09T04:59:36.045Z,89.15
2019-02-09T05:00:35.962Z,88.68
2019-02-09T05:01:35.886Z,89.34
2019-02-09T05:02:35.798Z,88.68
2019-02-09T05:03:35.717Z,88.68
2019-02-09T05:04:35.634Z,88.02
2019-02-09T05:05:35.547Z,88.78
2019-02-09T05:06:35.465Z,88.40
2019-02-09T05:07:35.382Z,88.59
2019-02-09T05:08:35.297Z,88.87
2019-02-09T05:09:35.214Z,88.40
2019-02-09T05:10:35.133Z,88.59
2019-02-09T05:11:35.050Z,88.59
2019-02-09T05:12:34.973Z,88.59
2019-02-09T05:13:34.881Z,88.21
2019-02-09T05:14:34.810Z,88.40
2019-02-09T05:15:34.717Z,87.92
2019-02-09T05:16:34.630Z,88.11
2019-02-09T05:17:34.553Z,88.59
2019-02-09T05:18:34.471Z,88.59
2019-02-09T05:19:34.379Z,88.78
2019-02-09T05:20:34.306Z,88.44
2019-02-09T05:21:34.220Z,88.06
2019-02-09T05:22:34.143Z,88.82
2019-02-09T05:23:34.054Z,88.54
2019-02-09T05:24:33.974Z,89.11
2019-02-09T05:25:33.890Z,89.58
2019-02-09T05:26:33.810Z,89.39
2019-02-09T05:27:33.725Z,89.39
2019-02-09T05:28:33.641Z,89.48
2019-02-09T05:29:33.556Z,89.67
2019-02-09T05:30:33.476Z,89.86
2019-02-09T05:31:33.406Z,89.77
2019-02-09T05:32:33.310Z,89.86
2019-02-09T05:33:33.228Z,90.24
2019-02-09T05:34:33.145Z,89.96
2019-02-09T05:35:33.073Z,90.91
2019-02-09T05:36:32.981Z,90.81
2019-02-09T05:37:32.895Z,91.38
2019-02-09T05:38:32.816Z,91.00
2019-02-09T05:39:33.865Z,91.76
2019-02-09T05:40:32.646Z,91.76
2019-02-09T05:41:32.573Z,91.66
2019-02-09T05:42:32.484Z,91.09
2019-02-09T05:43:32.405Z,91.19
2019-02-09T05:44:32.314Z,91.47
2019-02-09T05:45:32.236Z,91.85
2019-02-09T05:46:32.154Z,92.42
2019-02-09T05:47:32.071Z,92.04
2019-02-09T05:48:31.990Z,92.71
2019-02-09T05:49:31.905Z,92.99
2019-02-09T05:50:31.825Z,93.65
2019-02-09T05:51:31.739Z,93.84
2019-02-09T05:52:31.660Z,94.23
2019-02-09T05:53:31.582Z,94.60
2019-02-09T05:54:31.496Z,94.51
2019-02-09T05:55:31.413Z,94.70
2019-02-09T05:56:31.331Z,95.74
2019-02-09T05:57:31.242Z,95.65
2019-02-09T05:58:31.162Z,96.69
2019-02-09T05:59:31.078Z,96.78
2019-02-09T06:00:31.046Z,96.41
2019-02-09T06:01:32.565Z,96.12
2019-02-09T06:02:30.851Z,96.78
2019-02-09T06:03:30.757Z,96.69
2019-02-09T06:04:30.677Z,96.69
2019-02-09T06:05:30.587Z,96.69
2019-02-09T06:06:30.504Z,96.78
2019-02-09T06:07:30.424Z,96.59
2019-02-09T06:08:30.341Z,96.69
2019-02-09T06:09:30.259Z,96.69
2019-02-09T06:10:30.176Z,96.78
2019-02-09T06:11:30.099Z,96.78
2019-02-09T06:12:30.008Z,96.12
2019-02-09T06:13:29.924Z,96.59
2019-02-09T06:14:29.843Z,97.64
2019-02-09T06:15:29.756Z,97.16
2019-02-09T06:16:30.867Z,97.35
2019-02-09T06:17:29.597Z,96.97
2019-02-09T06:18:29.516Z,97.45
2019-02-09T06:19:29.439Z,97.35
2019-02-09T06:20:29.350Z,96.50
2019-02-09T06:21:29.268Z,96.69
2019-02-09T06:22:29.184Z,96.69
2019-02-09T06:23:29.104Z,96.78
2019-02-09T06:24:29.023Z,95.36
2019-02-09T06:25:29.016Z,96.08
2019-02-09T06:26:28.869Z,96.50
2019-02-09T06:27:28.774Z,95.93
2019-02-09T06:28:28.690Z,96.26
2019-02-09T06:29:28.608Z,96.26
2019-02-09T06:30:28.527Z,95.74
2019-02-09T06:31:28.445Z,95.74
2019-02-09T06:32:28.363Z,95.22
2019-02-09T06:33:28.284Z,94.84
2019-02-09T06:34:28.202Z,94.84
2019-02-09T06:35:28.113Z,94.65
2019-02-09T06:36:28.032Z,94.74
2019-02-09T06:37:27.951Z,94.18
2019-02-09T06:38:27.870Z,94.84
2019-02-09T06:39:27.787Z,94.56
2019-02-09T06:40:27.704Z,94.65
2019-02-09T06:41:27.626Z,94.18
2019-02-09T06:42:27.537Z,94.08
2019-02-09T06:43:27.458Z,93.80
2019-02-09T06:44:27.381Z,93.61
2019-02-09T06:45:27.292Z,92.94
2019-02-09T06:46:27.212Z,93.41
2019-02-09T06:47:27.127Z,93.41
2019-02-09T06:48:27.049Z,93.61
2019-02-09T06:49:26.966Z,93.41
2019-02-09T06:50:26.880Z,92.85
2019-02-09T06:51:26.799Z,92.85
2019-02-09T06:52:26.713Z,93.04
2019-02-09T06:53:26.634Z,93.23
2019-02-09T06:54:26.553Z,93.80
2019-02-09T06:55:26.473Z,93.80
2019-02-09T06:56:26.404Z,93.89
2019-02-09T06:57:26.301Z,93.80
2019-02-09T06:58:26.224Z,93.70
2019-02-09T06:59:26.143Z,93.99
2019-02-09T07:00:26.052Z,93.80
2019-02-09T07:01:25.996Z,94.08
2019-02-09T07:02:25.901Z,93.89
2019-02-09T07:03:25.816Z,93.80
2019-02-09T07:04:25.733Z,93.89
2019-02-09T07:05:25.649Z,94.08
2019-02-09T07:06:25.572Z,94.18
2019-02-09T07:07:25.484Z,94.56
2019-02-09T07:08:25.402Z,93.51
2019-02-09T07:09:25.321Z,94.65
2019-02-09T07:10:25.236Z,94.37
2019-02-09T07:11:25.157Z,94.37
2019-02-09T07:12:25.075Z,94.37
2019-02-09T07:13:24.991Z,94.56
2019-02-09T07:14:24.904Z,93.89
2019-02-09T07:15:24.825Z,93.41
2019-02-09T07:16:24.751Z,93.13
2019-02-09T07:17:24.664Z,93.80
2019-02-09T07:18:24.575Z,93.41
2019-02-09T07:19:26.091Z,94.27
2019-02-09T07:20:24.418Z,93.61
2019-02-09T07:21:24.350Z,93.89
2019-02-09T07:22:24.253Z,93.61
2019-02-09T07:23:24.171Z,93.23
2019-02-09T07:24:24.090Z,92.61
2019-02-09T07:25:24.008Z,92.99
2019-02-09T07:26:23.928Z,92.23
2019-02-09T07:27:23.843Z,92.52
2019-02-09T07:28:23.761Z,92.04
2019-02-09T07:29:23.682Z,92.04
2019-02-09T07:30:23.597Z,91.94
2019-02-09T07:31:23.515Z,91.56
2019-02-09T07:32:23.436Z,91.94
2019-02-09T07:33:23.360Z,92.23
2019-02-09T07:34:23.276Z,91.09
2019-02-09T07:35:23.188Z,90.90
2019-02-09T07:36:23.110Z,91.00
2019-02-09T07:37:23.043Z,90.90
2019-02-09T07:38:22.942Z,90.24
2019-02-09T07:39:22.863Z,90.43
2019-02-09T07:40:22.781Z,90.90
2019-02-09T07:41:22.700Z,91.00
2019-02-09T07:42:22.617Z,90.90
2019-02-09T07:43:22.535Z,91.09
2019-02-09T07:44:22.462Z,90.52
2019-02-09T07:45:22.369Z,90.24
2019-02-09T07:46:22.293Z,90.33
2019-02-09T07:47:22.206Z,90.43
2019-02-09T07:48:22.124Z,90.33
2019-02-09T07:49:22.044Z,90.52
2019-02-09T07:50:21.961Z,90.81
2019-02-09T07:51:21.878Z,90.90
2019-02-09T07:52:21.796Z,90.52
2019-02-09T07:53:21.715Z,90.14
2019-02-09T07:54:21.635Z,89.58
2019-02-09T07:55:21.554Z,90.05
2019-02-09T07:56:21.473Z,90.33
2019-02-09T07:57:21.389Z,90.24
2019-02-09T07:58:21.314Z,90.90
2019-02-09T07:59:21.227Z,91.00
2019-02-09T08:00:21.145Z,91.09
2019-02-09T08:01:21.064Z,91.38
2019-02-09T08:02:20.982Z,91.00
2019-02-09T08:03:20.904Z,91.28
2019-02-09T08:04:20.819Z,91.75
2019-02-09T08:05:20.738Z,91.66
2019-02-09T08:06:20.649Z,91.75
2019-02-09T08:07:20.579Z,91.38
2019-02-09T08:08:20.492Z,91.47
2019-02-09T08:09:20.408Z,91.28
2019-02-09T08:10:20.334Z,92.14
2019-02-09T08:11:20.249Z,92.42
2019-02-09T08:12:20.163Z,92.42
2019-02-09T08:13:20.086Z,92.23
2019-02-09T08:14:20.006Z,92.90
2019-02-09T08:15:19.924Z,93.18
2019-02-09T08:16:19.844Z,92.61
2019-02-09T08:17:19.761Z,93.18
2019-02-09T08:18:19.679Z,93.46
2019-02-09T08:19:19.596Z,93.46
2019-02-09T08:20:19.515Z,92.90
2019-02-09T08:21:19.433Z,93.37
2019-02-09T08:22:19.353Z,93.65
2019-02-09T08:23:19.273Z,93.56
2019-02-09T08:24:19.191Z,93.65
2019-02-09T08:25:19.111Z,94.70
2019-02-09T08:26:19.019Z,94.98
2019-02-09T08:27:23.604Z,94.89
2019-02-09T08:28:18.862Z,94.79
2019-02-09T08:29:18.784Z,95.27
2019-02-09T08:30:19.275Z,94.89
2019-02-09T08:31:18.621Z,94.93
2019-02-09T08:32:18.532Z,95.22
2019-02-09T08:33:18.456Z,96.17
2019-02-09T08:34:18.384Z,96.93
2019-02-09T08:35:18.294Z,97.02
2019-02-09T08:36:18.212Z,97.45
2019-02-09T08:37:18.131Z,97.26
2019-02-09T08:38:18.050Z,99.68
2019-02-09T08:39:17.970Z,99.87
2019-02-09T08:40:17.888Z,99.99
2019-02-09T08:41:17.804Z,99.99
2019-02-09T08:42:17.721Z,99.99
2019-02-09T08:43:17.645Z,99.99
2019-02-09T08:44:17.555Z,99.99
2019-02-09T08:45:17.480Z,99.99
2019-02-09T08:46:17.396Z,99.99
2019-02-09T08:47:17.318Z,99.99
2019-02-09T08:48:17.236Z,99.99
2019-02-09T08:49:17.158Z,99.99
2019-02-09T08:50:17.074Z,99.99
2019-02-09T08:51:16.991Z,99.99
2019-02-09T08:52:16.912Z,99.99
2019-02-09T08:53:16.827Z,99.99
2019-02-09T08:54:16.748Z,99.99
2019-02-09T08:55:16.669Z,99.99
2019-02-09T08:56:16.587Z,99.99
2019-02-09T08:57:16.506Z,99.99
2019-02-09T08:58:16.427Z,99.99
2019-02-09T08:59:16.343Z,98.40
2019-02-09T09:00:16.265Z,97.45
2019-02-09T09:01:16.192Z,97.07
2019-02-09T09:02:20.613Z,96.03
2019-02-09T09:03:16.024Z,97.17
2019-02-09T09:04:15.942Z,97.36
2019-02-09T09:05:15.864Z,96.31
2019-02-09T09:06:15.781Z,96.31
2019-02-09T09:07:15.699Z,96.31
2019-02-09T09:08:15.617Z,96.22
2019-02-09T09:09:15.539Z,96.79
2019-02-09T09:10:15.459Z,96.12
2019-02-09T09:11:15.376Z,95.94
2019-02-09T09:12:15.298Z,95.75
2019-02-09T09:13:15.215Z,95.46
2019-02-09T09:14:15.133Z,94.93
2019-02-09T09:15:15.056Z,95.22
2019-02-09T09:16:14.972Z,94.84
2019-02-09T09:17:14.888Z,94.18
2019-02-09T09:18:14.810Z,94.98
2019-02-09T09:19:14.728Z,94.93
2019-02-09T09:20:14.648Z,94.84
2019-02-09T09:21:14.568Z,95.31
2019-02-09T09:22:14.489Z,95.36
2019-02-09T09:23:14.405Z,94.65
2019-02-09T09:24:14.344Z,94.46
2019-02-09T09:25:14.249Z,93.32
2019-02-09T09:26:14.169Z,94.51
2019-02-09T09:27:14.077Z,94.42
2019-02-09T09:28:14.003Z,93.27
2019-02-09T09:29:13.920Z,91.66
2019-02-09T09:30:13.839Z,91.04
2019-02-09T09:31:13.761Z,91.52
2019-02-09T09:32:13.679Z,90.56
2019-02-09T09:33:13.602Z,89.90
2019-02-09T09:34:13.519Z,89.04
2019-02-09T09:35:13.438Z,88.61
2019-02-09T09:36:13.357Z,88.42
2019-02-09T09:37:13.277Z,88.23
2019-02-09T09:38:13.197Z,88.04
2019-02-09T09:39:13.126Z,87.57
2019-02-09T09:40:13.044Z,86.66
2019-02-09T09:41:12.956Z,86.85
2019-02-09T09:42:12.876Z,85.99
2019-02-09T09:43:12.796Z,85.33
2019-02-09T09:44:12.717Z,83.94
2019-02-09T09:45:12.637Z,83.37
2019-02-09T09:46:12.554Z,83.85
2019-02-09T09:47:12.477Z,82.70
2019-02-09T09:48:12.392Z,82.04
2019-02-09T09:49:13.943Z,81.51
2019-02-09T09:50:12.240Z,81.13
2019-02-09T09:51:12.168Z,79.89
2019-02-09T09:52:12.075Z,80.46
2019-02-09T09:53:11.999Z,81.70
2019-02-09T09:54:11.916Z,81.41
2019-02-09T09:55:11.837Z,81.03
2019-02-09T09:56:11.761Z,79.93
2019-02-09T09:57:11.684Z,78.41
2019-02-09T09:58:11.604Z,78.59
2019-02-09T09:59:11.518Z,78.31
2019-02-09T10:00:11.436Z,77.59
2019-02-09T10:01:11.363Z,78.59
2019-02-09T10:02:11.295Z,76.69
2019-02-09T10:03:11.207Z,75.64
2019-02-09T10:04:11.121Z,76.12
2019-02-09T10:05:11.053Z,76.98
2019-02-09T10:06:11.013Z,77.07
2019-02-09T10:07:11.013Z,75.36
2019-02-09T10:08:10.826Z,74.98
2019-02-09T10:09:10.733Z,75.07
2019-02-09T10:10:10.669Z,75.74
2019-02-09T10:11:10.573Z,76.03
2019-02-09T10:12:10.542Z,76.59
2019-02-09T10:13:10.418Z,76.31
2019-02-09T10:14:10.340Z,75.55
2019-02-09T10:15:10.315Z,74.98
2019-02-09T10:16:10.178Z,74.88
2019-02-09T10:17:10.101Z,75.20
2019-02-09T10:18:10.032Z,74.44
2019-02-09T10:19:09.944Z,73.96
2019-02-09T10:20:09.887Z,74.25
2019-02-09T10:21:09.782Z,74.16
2019-02-09T10:22:09.714Z,73.77
2019-02-09T10:23:09.635Z,73.58
2019-02-09T10:24:09.569Z,72.82
2019-02-09T10:25:09.578Z,72.09
2019-02-09T10:26:09.406Z,72.72
2019-02-09T10:27:09.331Z,73.14
2019-02-09T10:28:09.237Z,71.87
2019-02-09T10:29:09.162Z,72.25
2019-02-09T10:30:09.101Z,73.39
2019-02-09T10:31:09.000Z,73.58
2019-02-09T10:32:08.928Z,72.96
2019-02-09T10:33:08.850Z,71.68
2019-02-09T10:34:08.773Z,72.06
2019-02-09T10:35:08.694Z,72.63
2019-02-09T10:36:08.614Z,72.48
2019-02-09T10:37:08.534Z,72.38
2019-02-09T10:38:08.461Z,72.09
2019-02-09T10:39:08.394Z,71.52
2019-02-09T10:40:08.301Z,71.14
2019-02-09T10:41:08.228Z,70.95
2019-02-09T10:42:08.150Z,69.52
2019-02-09T10:43:08.064Z,70.76
2019-02-09T10:44:07.991Z,69.52
2019-02-09T10:45:07.911Z,70.19
2019-02-09T10:46:07.838Z,69.81
2019-02-09T10:47:07.758Z,70.47
2019-02-09T10:48:07.686Z,68.38
2019-02-09T10:49:07.600Z,68.47
2019-02-09T10:50:07.525Z,67.55
2019-02-09T10:51:07.444Z,67.04
2019-02-09T10:52:07.367Z,67.71
2019-02-09T10:53:07.292Z,67.23
2019-02-09T10:54:07.211Z,67.71
2019-02-09T10:55:07.132Z,67.52
2019-02-09T10:56:07.056Z,67.93
2019-02-09T10:57:06.984Z,67.17
2019-02-09T10:58:06.903Z,67.46
2019-02-09T10:59:06.819Z,67.07
2019-02-09T11:00:06.741Z,66.94
2019-02-09T11:01:06.675Z,67.71
2019-02-09T11:02:06.593Z,68.12
2019-02-09T11:03:06.508Z,67.65
2019-02-09T11:04:06.437Z,67.07
2019-02-09T11:05:06.356Z,66.69
2019-02-09T11:06:06.285Z,66.38
2019-02-09T11:07:06.209Z,66.28
2019-02-09T11:08:06.124Z,67.33
2019-02-09T11:09:06.045Z,67.99
2019-02-09T11:10:05.970Z,67.61
2019-02-09T11:11:05.905Z,69.52
2019-02-09T11:12:05.815Z,67.80
2019-02-09T11:13:05.739Z,68.47
2019-02-09T11:14:05.661Z,68.76
2019-02-09T11:15:05.584Z,67.77
2019-02-09T11:16:05.506Z,68.91
2019-02-09T11:17:05.427Z,68.72
2019-02-09T11:18:05.354Z,68.91
2019-02-09T11:19:05.272Z,69.96
2019-02-09T11:20:05.195Z,70.34
2019-02-09T11:21:05.127Z,70.82
2019-02-09T11:22:05.039Z,70.92
2019-02-09T11:23:04.973Z,70.63
2019-02-09T11:24:04.886Z,70.15
2019-02-09T11:25:04.802Z,71.20
2019-02-09T11:26:04.730Z,71.36
2019-02-09T11:27:04.653Z,70.78
2019-02-09T11:28:04.572Z,71.45
2019-02-09T11:29:04.494Z,71.26
2019-02-09T11:30:04.418Z,71.07
2019-02-09T11:31:04.337Z,71.36
2019-02-09T11:32:04.266Z,71.64
2019-02-09T11:33:04.757Z,71.07
2019-02-09T11:34:04.103Z,71.64
2019-02-09T11:35:04.028Z,72.12
2019-02-09T11:36:03.950Z,71.83
2019-02-09T11:37:03.870Z,72.69
2019-02-09T11:38:03.794Z,72.50
2019-02-09T11:39:03.759Z,72.02
2019-02-09T11:40:03.636Z,72.41
2019-02-09T11:41:03.560Z,72.02
2019-02-09T11:42:03.481Z,72.21
2019-02-09T11:43:03.400Z,72.78
2019-02-09T11:44:03.327Z,72.60
2019-02-09T11:45:03.249Z,72.50
2019-02-09T11:46:03.170Z,72.78
2019-02-09T11:47:03.127Z,73.17
2019-02-09T11:48:03.012Z,72.41
2019-02-09T11:49:02.936Z,72.88
2019-02-09T11:50:02.857Z,72.60
2019-02-09T11:51:02.806Z,72.78
2019-02-09T11:52:02.700Z,72.72
2019-02-09T11:53:02.626Z,72.44
2019-02-09T11:54:02.543Z,72.92
2019-02-09T11:55:02.471Z,72.72
2019-02-09T11:56:02.387Z,72.92
2019-02-09T11:57:02.309Z,72.25
2019-02-09T11:58:02.234Z,72.82
2019-02-09T11:59:02.157Z,71.87
2019-02-09T12:00:02.068Z,71.39
2019-02-09T12:01:01.995Z,70.92
2019-02-09T12:02:01.916Z,70.82
2019-02-09T12:03:08.422Z,71.20
2019-02-09T12:04:01.767Z,72.06
2019-02-09T12:05:01.685Z,71.77
2019-02-09T12:06:01.609Z,71.39
2019-02-09T12:07:01.532Z,72.06
2019-02-09T12:08:01.454Z,72.63
2019-02-09T12:09:01.377Z,71.68
2019-02-09T12:10:01.295Z,71.73
2019-02-09T12:11:01.217Z,72.50
2019-02-09T12:12:01.142Z,72.78
2019-02-09T12:13:01.064Z,72.41
2019-02-09T12:14:00.983Z,72.31
2019-02-09T12:15:00.909Z,71.73
2019-02-09T12:16:00.824Z,71.64
2019-02-09T12:17:00.747Z,72.41
2019-02-09T12:18:00.671Z,72.69
2019-02-09T12:19:00.628Z,72.78
2019-02-09T12:20:00.515Z,72.69
2019-02-09T12:21:00.432Z,72.69
2019-02-09T12:22:00.361Z,72.69
2019-02-09T12:23:00.282Z,72.60
2019-02-09T12:24:00.197Z,72.88
2019-02-09T12:25:00.286Z,72.97
2019-02-09T12:26:00.050Z,72.88
2019-02-09T12:26:59.970Z,73.93
2019-02-09T12:27:59.910Z,73.36
2019-02-09T12:28:59.813Z,73.17
2019-02-09T12:29:59.729Z,73.65
2019-02-09T12:30:59.718Z,74.50
2019-02-09T12:31:59.583Z,74.50
2019-02-09T12:32:59.500Z,73.45
2019-02-09T12:33:59.421Z,73.65
2019-02-09T12:34:59.350Z,73.17
2019-02-09T12:35:59.266Z,72.78
2019-02-09T12:36:59.200Z,72.50
2019-02-09T12:37:59.109Z,73.17
2019-02-09T12:38:59.028Z,73.26
2019-02-09T12:39:58.956Z,73.65
2019-02-09T12:40:58.874Z,73.26
2019-02-09T12:41:58.798Z,73.26
2019-02-09T12:42:58.718Z,72.78
2019-02-09T12:43:58.643Z,72.69
2019-02-09T12:44:58.567Z,73.36
2019-02-09T12:45:58.484Z,73.74
2019-02-09T12:46:58.419Z,74.31
2019-02-09T12:47:58.333Z,73.74
2019-02-09T12:48:58.251Z,72.78
2019-02-09T12:49:58.169Z,72.78
2019-02-09T12:50:58.096Z,72.31